Kezdőlap
METAR-TAF:

METAR-TAF

Repülőterek :

Longyearbyen, Norvégia

földrajzi szélesség: 78-15N, földrajzi hosszúság: 015-28E, magasság: 2 m

Jelenlegi meteorológiai megfigyelések

A jelentés 1 órával és 5 perccel ezelõtt készült, 21:50 UTC
Keleti szél 10 kt
Hőmérséklet -12°C
Páratartalom 47%
Légköri nyomás 1006 hPa
Látótávolság 10 km, vagy több
Kevés felhő 2500 lábon

METAR: ENSB 242150Z 10010KT 9999 FEW025 M12/M21 Q1006 RMK WIND 1400FT 14006KT

Idő: 00:55 (22:55 UTC)

Előrejelzés

Az előrejelzés 24-én 18 óra UTC és 25-én 18 óra UTC között érvényes
Kelet-délkeleti szél 12 kt
Látótávolság 10 km, vagy több
Kevés felhő 1500 lábon

TAF: ENSB 2418/2518 12012KT 9999 FEW015

Meteorológiai megfigyelések és előrejelzések több, mint 4000 repülőtéren (METAR és TAF jelentéseket).

A térképen piros és sárga pontok jelzik az elérhető meteorológiai állomásokat.

Mozgassa az egeret a pont fölött, hogy megjelenjen az állomás neve.

Azután kattintson az időjárási megfigyelések és előrejelzések megtekintéséhez.

A térkép megváltoztatása: kattintson a fekete keresztel jelölt zöld gombra ráközelítéshez, a vonallal jelölt zöld gombra távolításhoz, vagy a zöld nyilakra a szomszédos térképek eléréséhez.


METAR-TAF: